createdAt,value
2023-04-14T00:02:08.490Z,97773.56
2023-04-14T00:04:35.879Z,97782.09
2023-04-14T00:07:02.547Z,97781.25
2023-04-14T00:09:29.993Z,97781.16
2023-04-14T00:11:57.393Z,97788.41
2023-04-14T00:14:23.944Z,97789.84
2023-04-14T00:16:50.743Z,97795.97
2023-04-14T00:19:17.281Z,97800.09
2023-04-14T00:21:43.835Z,97798.69
2023-04-14T00:24:10.359Z,97798.06
2023-04-14T00:26:36.810Z,97803.50
2023-04-14T00:29:03.505Z,97792.28
2023-04-14T00:31:30.277Z,97786.16
2023-04-14T00:33:56.853Z,97780.66
2023-04-14T00:36:23.274Z,97785.00
2023-04-14T00:38:49.887Z,97783.38
2023-04-14T00:41:16.338Z,97784.31
2023-04-14T00:43:42.834Z,97782.00
2023-04-14T00:46:09.682Z,97794.47
2023-04-14T00:48:36.706Z,97791.94
2023-04-14T00:51:04.158Z,97792.38
2023-04-14T00:53:31.859Z,97796.59
2023-04-14T00:55:59.179Z,97790.94
2023-04-14T00:58:26.275Z,97790.25
2023-04-14T01:00:55.719Z,97786.06
2023-04-14T01:03:24.558Z,97785.91
2023-04-14T01:05:51.714Z,97790.31
2023-04-14T01:08:19.451Z,97788.22
2023-04-14T01:11:11.800Z,97793.94
2023-04-14T01:13:51.128Z,97794.47
2023-04-14T01:16:33.672Z,97790.66
2023-04-14T01:19:21.929Z,97787.09
2023-04-14T01:21:52.336Z,97789.63
2023-04-14T01:24:40.874Z,97797.06
2023-04-14T01:27:31.203Z,97796.69
2023-04-14T01:30:10.000Z,97802.47
2023-04-14T01:32:43.035Z,97805.66
2023-04-14T01:35:20.943Z,97809.72
2023-04-14T01:37:54.136Z,97802.06
2023-04-14T01:40:25.945Z,97803.03
2023-04-14T01:43:10.263Z,97808.47
2023-04-14T01:45:51.415Z,97809.13
2023-04-14T01:48:18.997Z,97811.59
2023-04-14T01:50:47.168Z,97820.03
2023-04-14T01:53:15.737Z,97807.94
2023-04-14T01:55:44.249Z,97811.06
2023-04-14T01:58:12.241Z,97808.56
2023-04-14T02:00:41.050Z,97815.25
2023-04-14T02:03:07.968Z,97823.84
2023-04-14T02:05:39.967Z,97808.84
2023-04-14T02:08:12.587Z,97818.97
2023-04-14T02:10:43.100Z,97820.81
2023-04-14T02:13:11.392Z,97819.09
2023-04-14T02:15:40.578Z,97818.06
2023-04-14T02:18:07.876Z,97819.06
2023-04-14T02:20:38.095Z,97826.06
2023-04-14T02:23:04.634Z,97824.63
2023-04-14T02:25:34.836Z,97823.78
2023-04-14T02:28:06.514Z,97819.66
2023-04-14T02:30:37.815Z,97825.28
2023-04-14T02:33:09.591Z,97826.78
2023-04-14T02:35:44.604Z,97834.47
2023-04-14T02:38:21.975Z,97835.41
2023-04-14T02:40:49.584Z,97835.88
2023-04-14T02:43:20.667Z,97834.94
2023-04-14T02:45:50.682Z,97838.81
2023-04-14T02:48:21.352Z,97841.50
2023-04-14T02:50:52.750Z,97839.00
2023-04-14T02:53:25.151Z,97846.84
2023-04-14T02:56:01.562Z,97849.34
2023-04-14T02:58:33.473Z,97852.31
2023-04-14T03:01:01.409Z,97857.03
2023-04-14T03:03:28.976Z,97855.25
2023-04-14T03:05:56.193Z,97865.13
2023-04-14T03:08:23.764Z,97860.47
2023-04-14T03:10:51.615Z,97863.06
2023-04-14T03:13:23.839Z,97850.63
2023-04-14T03:15:52.798Z,97844.16
2023-04-14T03:18:21.697Z,97846.84
2023-04-14T03:20:51.702Z,97841.03
2023-04-14T03:23:21.813Z,97847.41
2023-04-14T03:25:55.179Z,97845.44
2023-04-14T03:28:30.347Z,97843.03
2023-04-14T03:31:01.308Z,97836.84
2023-04-14T03:33:33.997Z,97841.44
2023-04-14T03:36:02.010Z,97842.56
2023-04-14T03:38:31.718Z,97850.31
2023-04-14T03:41:01.200Z,97846.69
2023-04-14T03:43:28.532Z,97855.41
2023-04-14T03:46:05.138Z,97856.38
2023-04-14T03:48:36.673Z,97857.84
2023-04-14T03:51:08.437Z,97861.19
2023-04-14T03:53:37.617Z,97858.63
2023-04-14T03:56:06.501Z,97859.56
2023-04-14T03:58:34.156Z,97860.09
2023-04-14T04:01:03.410Z,97853.22
2023-04-14T04:03:30.802Z,97853.78
2023-04-14T04:05:58.549Z,97866.19
2023-04-14T04:08:26.584Z,97866.75
2023-04-14T04:10:55.472Z,97860.22
2023-04-14T04:13:23.858Z,97854.22
2023-04-14T04:15:52.035Z,97855.44
2023-04-14T04:18:18.943Z,97859.56
2023-04-14T04:20:47.007Z,97856.47
2023-04-14T04:23:17.948Z,97862.09
2023-04-14T04:25:44.786Z,97869.19
2023-04-14T04:28:26.886Z,97863.56
2023-04-14T04:30:56.424Z,97871.50
2023-04-14T04:33:23.365Z,97865.94
2023-04-14T04:35:52.468Z,97873.38
2023-04-14T04:38:20.124Z,97870.09
2023-04-14T04:40:46.682Z,97868.31
2023-04-14T04:43:21.841Z,97867.72
2023-04-14T04:46:19.276Z,97870.91
2023-04-14T04:48:46.433Z,97866.91
2023-04-14T04:51:13.189Z,97871.88
2023-04-14T04:53:40.512Z,97875.22
2023-04-14T04:56:07.324Z,97878.94
2023-04-14T04:58:33.755Z,97886.28
2023-04-14T05:01:07.030Z,97885.31
2023-04-14T05:03:33.519Z,97886.19
2023-04-14T05:06:00.327Z,97892.44
2023-04-14T05:08:27.029Z,97890.13
2023-04-14T05:10:53.515Z,97891.22
2023-04-14T05:13:19.968Z,97886.47
2023-04-14T05:15:46.515Z,97889.50
2023-04-14T05:18:13.134Z,97884.88
2023-04-14T05:20:39.752Z,97896.38
2023-04-14T05:23:06.594Z,97891.72
2023-04-14T05:25:33.147Z,97888.41
2023-04-14T05:27:59.612Z,97901.72
2023-04-14T05:30:26.546Z,97895.41
2023-04-14T05:32:53.092Z,97893.41
2023-04-14T05:35:19.611Z,97896.13
2023-04-14T05:37:46.102Z,97893.00
2023-04-14T05:40:12.900Z,97886.41
2023-04-14T05:42:40.910Z,97889.53
2023-04-14T05:45:08.019Z,97881.56
2023-04-14T05:47:34.502Z,97877.31
2023-04-14T05:50:01.001Z,97884.94
2023-04-14T05:52:27.502Z,97888.31
2023-04-14T05:54:54.006Z,97877.84
2023-04-14T05:57:21.248Z,97884.06
2023-04-14T05:59:47.687Z,97885.47
2023-04-14T06:02:14.290Z,97890.81
2023-04-14T06:04:40.892Z,97885.22
2023-04-14T06:07:07.449Z,97882.78
2023-04-14T06:09:33.895Z,97886.19
2023-04-14T06:12:01.402Z,97881.56
2023-04-14T06:14:27.840Z,97883.59
2023-04-14T06:16:54.918Z,97894.16
2023-04-14T06:19:22.131Z,97881.19
2023-04-14T06:21:48.629Z,97885.38
2023-04-14T06:24:15.303Z,97876.28
2023-04-14T06:26:42.088Z,97878.78
2023-04-14T06:29:08.677Z,97867.44
2023-04-14T06:31:35.917Z,97867.06
2023-04-14T06:34:02.453Z,97859.38
2023-04-14T06:36:29.093Z,97864.50
2023-04-14T06:38:56.982Z,97857.16
2023-04-14T06:41:23.559Z,97852.78
2023-04-14T06:43:50.312Z,97855.28
2023-04-14T06:46:17.458Z,97858.91
2023-04-14T06:48:44.040Z,97857.06
2023-04-14T06:51:12.240Z,97852.41
2023-04-14T06:53:38.770Z,97843.28
2023-04-14T06:56:06.690Z,97843.34
2023-04-14T06:58:33.499Z,97847.00
2023-04-14T07:01:02.118Z,97842.78
2023-04-14T07:03:34.311Z,97837.44
2023-04-14T07:06:10.068Z,97834.22
2023-04-14T07:08:36.658Z,97833.03
2023-04-14T07:11:04.827Z,97836.69
2023-04-14T07:13:31.955Z,97833.56
2023-04-14T07:15:59.341Z,97837.84
2023-04-14T07:18:25.902Z,97833.00
2023-04-14T07:20:54.059Z,97828.09
2023-04-14T07:23:21.402Z,97823.94
2023-04-14T07:25:52.690Z,97825.97
2023-04-14T07:28:20.558Z,97829.44
2023-04-14T07:30:47.018Z,97820.16
2023-04-14T07:33:14.213Z,97818.91
2023-04-14T07:35:48.252Z,97817.78
2023-04-14T07:38:26.357Z,97812.06
2023-04-14T07:40:53.008Z,97813.75
2023-04-14T07:43:19.563Z,97807.13
2023-04-14T07:45:46.038Z,97807.09
2023-04-14T07:48:12.706Z,97797.09
2023-04-14T07:50:39.252Z,97793.34
2023-04-14T07:53:06.788Z,97800.41
2023-04-14T07:55:33.245Z,97799.75
2023-04-14T07:57:59.777Z,97802.13
2023-04-14T08:00:26.644Z,97800.28
2023-04-14T08:02:53.627Z,97793.56
2023-04-14T08:05:20.296Z,97805.84
2023-04-14T08:07:49.448Z,97797.06
2023-04-14T08:10:16.019Z,97790.63
2023-04-14T08:12:42.487Z,97796.28
2023-04-14T08:15:09.644Z,97789.31
2023-04-14T08:17:36.489Z,97794.66
2023-04-14T08:20:03.093Z,97791.97
2023-04-14T08:22:29.531Z,97794.66
2023-04-14T08:24:56.066Z,97789.75
2023-04-14T08:27:22.569Z,97781.41
2023-04-14T08:29:49.039Z,97791.75
2023-04-14T08:32:15.678Z,97789.44
2023-04-14T08:35:34.887Z,97786.69
2023-04-14T08:37:28.778Z,97787.50
2023-04-14T08:39:55.252Z,97780.69
2023-04-14T08:42:21.950Z,97784.34
2023-04-14T08:44:49.242Z,97788.28
2023-04-14T08:47:16.412Z,97777.94
2023-04-14T08:49:49.840Z,97789.31
2023-04-14T08:52:21.943Z,97782.34
2023-04-14T08:54:51.275Z,97776.59
2023-04-14T08:57:19.532Z,97780.44
2023-04-14T08:59:47.303Z,97789.84
2023-04-14T09:02:14.377Z,97786.91
2023-04-14T09:04:41.205Z,97780.34
2023-04-14T09:07:08.097Z,97784.19
2023-04-14T09:09:34.735Z,97772.44
2023-04-14T09:12:03.677Z,97764.94
2023-04-14T09:14:30.444Z,97773.69
2023-04-14T09:16:57.483Z,97767.38
2023-04-14T09:19:27.200Z,97767.34
2023-04-14T09:21:55.623Z,97762.75
2023-04-14T09:24:31.779Z,97765.44
2023-04-14T09:26:59.607Z,97761.84
2023-04-14T09:29:26.289Z,97765.47
2023-04-14T09:31:53.046Z,97763.53
2023-04-14T09:34:20.821Z,97762.66
2023-04-14T09:37:04.679Z,97762.22
2023-04-14T09:39:32.544Z,97752.69
2023-04-14T09:42:00.235Z,97752.25
2023-04-14T09:44:26.882Z,97751.06
2023-04-14T09:47:01.202Z,97750.00
2023-04-14T09:49:29.141Z,97740.25
2023-04-14T09:52:02.875Z,97736.66
2023-04-14T09:54:29.348Z,97742.91
2023-04-14T09:56:56.653Z,97743.91
2023-04-14T09:59:33.950Z,97743.75
2023-04-14T10:02:04.799Z,97740.53
2023-04-14T10:04:32.122Z,97733.50
2023-04-14T10:06:59.158Z,97730.13
2023-04-14T10:09:30.798Z,97725.38
2023-04-14T10:12:12.284Z,97727.03
2023-04-14T10:14:43.973Z,97721.06
2023-04-14T10:17:10.761Z,97720.41
2023-04-14T10:19:37.957Z,97706.88
2023-04-14T10:22:06.134Z,97712.81
2023-04-14T10:24:33.274Z,97711.19
2023-04-14T10:27:02.931Z,97708.47
2023-04-14T10:29:30.875Z,97705.41
2023-04-14T10:32:05.849Z,97700.56
2023-04-14T10:34:33.263Z,97689.47
2023-04-14T10:37:16.321Z,97689.81
2023-04-14T10:39:43.046Z,97683.56
2023-04-14T10:42:09.889Z,97679.50
2023-04-14T10:44:36.613Z,97680.09
2023-04-14T10:47:05.613Z,97675.06
2023-04-14T10:49:38.173Z,97673.72
2023-04-14T10:52:17.132Z,97653.28
2023-04-14T10:54:53.157Z,97668.31
2023-04-14T10:57:24.097Z,97665.78
2023-04-14T10:59:55.132Z,97666.31
2023-04-14T11:02:32.329Z,97663.63
2023-04-14T11:05:05.259Z,97667.53
2023-04-14T11:07:46.170Z,97663.47
2023-04-14T11:10:24.688Z,97657.38
2023-04-14T11:12:57.464Z,97656.47
2023-04-14T11:15:24.172Z,97653.00
2023-04-14T11:17:51.130Z,97667.22
2023-04-14T11:20:17.837Z,97665.88
2023-04-14T11:22:46.081Z,97670.84
2023-04-14T11:25:24.524Z,97666.63
2023-04-14T11:27:52.064Z,97664.16
2023-04-14T11:30:20.696Z,97662.28
2023-04-14T11:32:59.901Z,97665.16
2023-04-14T11:35:28.194Z,97659.31
2023-04-14T11:37:59.818Z,97656.16
2023-04-14T11:40:27.406Z,97647.06
2023-04-14T11:42:58.781Z,97646.34
2023-04-14T11:45:31.767Z,97640.63
2023-04-14T11:47:59.159Z,97644.41
2023-04-14T11:50:27.281Z,97642.69
2023-04-14T11:53:00.023Z,97629.56
2023-04-14T11:55:30.085Z,97613.63
2023-04-14T11:57:57.214Z,97611.34
2023-04-14T12:00:24.506Z,97607.28
2023-04-14T12:02:51.614Z,97599.03
2023-04-14T12:05:23.563Z,97596.72
2023-04-14T12:07:50.290Z,97599.53
2023-04-14T12:10:17.732Z,97594.19
2023-04-14T12:12:44.307Z,97595.47
2023-04-14T12:15:13.517Z,97587.34
2023-04-14T12:17:41.279Z,97575.09
2023-04-14T12:20:15.730Z,97579.00
2023-04-14T12:22:42.311Z,97585.09
2023-04-14T12:25:15.280Z,97578.63
2023-04-14T12:27:41.795Z,97572.31
2023-04-14T12:30:11.620Z,97564.06
2023-04-14T12:32:42.150Z,97567.50
2023-04-14T12:35:08.987Z,97569.72
2023-04-14T12:37:36.039Z,97565.59
2023-04-14T12:40:06.414Z,97568.00
2023-04-14T12:42:51.593Z,97557.00
2023-04-14T12:45:18.271Z,97554.38
2023-04-14T12:47:52.997Z,97553.19
2023-04-14T12:50:32.546Z,97550.47
2023-04-14T12:53:03.384Z,97545.28
2023-04-14T12:55:31.572Z,97545.00
2023-04-14T12:57:58.875Z,97550.47
2023-04-14T13:00:27.449Z,97543.53
2023-04-14T13:02:55.766Z,97543.16
2023-04-14T13:05:22.716Z,97529.44
2023-04-14T13:07:49.230Z,97535.03
2023-04-14T13:10:15.870Z,97530.97
2023-04-14T13:12:42.994Z,97537.16
2023-04-14T13:15:27.970Z,97528.59
2023-04-14T13:17:56.482Z,97528.28
2023-04-14T13:20:22.947Z,97528.34
2023-04-14T13:22:49.456Z,97530.47
2023-04-14T13:25:16.005Z,97515.50
2023-04-14T13:27:42.489Z,97514.34
2023-04-14T13:30:09.458Z,97505.00
2023-04-14T13:32:35.968Z,97506.81
2023-04-14T13:35:02.559Z,97502.38
2023-04-14T13:37:29.062Z,97504.63
2023-04-14T13:39:55.716Z,97505.63
2023-04-14T13:42:22.161Z,97503.75
2023-04-14T13:44:48.669Z,97495.53
2023-04-14T13:47:15.154Z,97500.16
2023-04-14T13:49:42.249Z,97502.09
2023-04-14T13:52:08.725Z,97495.28
2023-04-14T13:54:35.429Z,97480.47
2023-04-14T13:57:01.883Z,97490.13
2023-04-14T13:59:28.338Z,97482.38
2023-04-14T14:01:54.966Z,97489.38
2023-04-14T14:04:21.737Z,97482.88
2023-04-14T14:06:48.408Z,97491.91
2023-04-14T14:09:14.895Z,97492.94
2023-04-14T14:11:44.072Z,97495.19
2023-04-14T14:14:12.792Z,97494.19
2023-04-14T14:16:39.303Z,97484.28
2023-04-14T14:19:08.194Z,97477.22
2023-04-14T14:21:34.690Z,97472.22
2023-04-14T14:24:01.596Z,97471.97
2023-04-14T14:26:28.422Z,97480.53
2023-04-14T14:28:54.900Z,97470.50
2023-04-14T14:31:21.492Z,97458.97
2023-04-14T14:33:47.962Z,97462.25
2023-04-14T14:36:15.362Z,97467.81
2023-04-14T14:38:41.818Z,97465.84
2023-04-14T14:41:08.315Z,97459.28
2023-04-14T14:43:52.780Z,97469.34
2023-04-14T14:46:19.364Z,97460.59
2023-04-14T14:48:45.983Z,97459.06
2023-04-14T14:51:12.482Z,97463.69
2023-04-14T14:53:38.875Z,97453.25
2023-04-14T14:56:05.702Z,97460.66
2023-04-14T14:58:32.147Z,97448.72
2023-04-14T15:00:58.719Z,97448.72
2023-04-14T15:03:25.584Z,97447.50
2023-04-14T15:05:53.351Z,97445.44
2023-04-14T15:08:19.818Z,97444.91
2023-04-14T15:10:46.435Z,97442.69
2023-04-14T15:13:13.171Z,97446.66
2023-04-14T15:15:39.592Z,97447.69
2023-04-14T15:18:07.236Z,97446.06
2023-04-14T15:20:33.866Z,97438.31
2023-04-14T15:23:00.325Z,97443.47
2023-04-14T15:25:26.773Z,97438.84
2023-04-14T15:27:53.199Z,97446.16
2023-04-14T15:30:23.471Z,97447.03
2023-04-14T15:32:50.980Z,97441.28
2023-04-14T15:35:17.726Z,97443.84
2023-04-14T15:37:44.157Z,97452.06
2023-04-14T15:40:10.944Z,97446.06
2023-04-14T15:42:37.659Z,97443.41
2023-04-14T15:45:05.251Z,97443.91
2023-04-14T15:47:31.802Z,97442.28
2023-04-14T15:50:10.032Z,97442.31
2023-04-14T15:52:39.561Z,97441.19
2023-04-14T15:55:07.177Z,97443.41
2023-04-14T15:57:33.596Z,97440.50
2023-04-14T16:00:01.905Z,97439.91
2023-04-14T16:02:33.169Z,97444.09
2023-04-14T16:04:59.832Z,97437.03
2023-04-14T16:07:29.085Z,97446.50
2023-04-14T16:09:55.683Z,97444.81
2023-04-14T16:12:23.269Z,97444.91
2023-04-14T16:14:54.172Z,97440.59
2023-04-14T16:17:22.011Z,97439.47
2023-04-14T16:19:48.582Z,97444.38
2023-04-14T16:22:15.525Z,97443.88
2023-04-14T16:24:42.170Z,97443.78
2023-04-14T16:27:08.764Z,97445.47
2023-04-14T16:29:35.545Z,97453.66
2023-04-14T16:32:02.172Z,97445.25
2023-04-14T16:34:28.970Z,97448.16
2023-04-14T16:36:55.708Z,97447.38
2023-04-14T16:39:22.377Z,97450.84
2023-04-14T16:41:48.950Z,97446.09
2023-04-14T16:44:15.586Z,97448.47
2023-04-14T16:46:42.192Z,97452.03
2023-04-14T16:49:08.845Z,97454.00
2023-04-14T16:51:35.393Z,97448.16
2023-04-14T16:54:02.408Z,97445.59
2023-04-14T16:56:29.794Z,97446.56
2023-04-14T16:58:56.429Z,97446.63
2023-04-14T17:01:26.265Z,97446.22
2023-04-14T17:03:53.231Z,97442.66
2023-04-14T17:06:19.956Z,97444.97
2023-04-14T17:08:46.856Z,97450.00
2023-04-14T17:11:15.018Z,97439.88
2023-04-14T17:13:42.525Z,97442.06
2023-04-14T17:16:11.121Z,97442.88
2023-04-14T17:18:38.146Z,97444.84
2023-04-14T17:21:06.102Z,97444.16
2023-04-14T17:23:37.023Z,97443.56
2023-04-14T17:26:04.407Z,97444.34
2023-04-14T17:28:31.068Z,97453.34
2023-04-14T17:30:58.926Z,97448.72
2023-04-14T17:33:27.315Z,97453.50
2023-04-14T17:35:54.972Z,97450.97
2023-04-14T17:38:21.736Z,97452.75
2023-04-14T17:40:48.328Z,97452.94
2023-04-14T17:43:15.423Z,97455.56
2023-04-14T17:45:43.887Z,97455.09
2023-04-14T17:48:10.818Z,97451.41
2023-04-14T17:50:37.925Z,97451.25
2023-04-14T17:53:04.777Z,97453.88
2023-04-14T17:55:31.734Z,97459.84
2023-04-14T17:57:58.690Z,97453.31
2023-04-14T18:00:27.483Z,97460.28
2023-04-14T18:02:54.115Z,97453.59
2023-04-14T18:05:20.867Z,97463.03
2023-04-14T18:07:47.459Z,97467.34
2023-04-14T18:10:13.948Z,97472.91
2023-04-14T18:12:40.600Z,97474.19
2023-04-14T18:15:07.501Z,97475.13
2023-04-14T18:17:36.327Z,97474.44
2023-04-14T18:20:04.140Z,97471.69
2023-04-14T18:22:31.451Z,97468.69
2023-04-14T18:24:57.911Z,97477.06
2023-04-14T18:29:54.537Z,97475.78
2023-04-14T18:32:22.277Z,97476.69
2023-04-14T18:34:48.762Z,97480.13
2023-04-14T18:37:15.790Z,97477.88
2023-04-14T18:39:42.705Z,97484.22
2023-04-14T18:42:10.065Z,97480.22
2023-04-14T18:44:36.760Z,97479.66
2023-04-14T18:47:03.230Z,97481.09
2023-04-14T18:49:29.856Z,97481.13
2023-04-14T18:51:56.643Z,97487.41
2023-04-14T18:54:23.273Z,97490.66
2023-04-14T18:56:49.785Z,97493.28
2023-04-14T18:59:16.230Z,97498.88
2023-04-14T19:01:42.839Z,97498.09
2023-04-14T19:04:09.427Z,97503.97
2023-04-14T19:06:37.391Z,97509.00
2023-04-14T19:09:04.511Z,97504.59
2023-04-14T19:11:35.992Z,97506.41
2023-04-14T19:14:04.524Z,97510.84
2023-04-14T19:16:31.403Z,97510.03
2023-04-14T19:18:58.661Z,97514.66
2023-04-14T19:21:26.075Z,97515.06
2023-04-14T19:23:54.405Z,97515.22
2023-04-14T19:26:20.988Z,97515.59
2023-04-14T19:28:47.453Z,97514.38
2023-04-14T19:31:13.945Z,97523.22
2023-04-14T19:33:41.725Z,97527.63
2023-04-14T19:36:16.025Z,97527.19
2023-04-14T19:38:42.839Z,97531.00
2023-04-14T19:41:09.648Z,97531.38
2023-04-14T19:43:36.475Z,97538.28
2023-04-14T19:46:05.073Z,97534.00
2023-04-14T19:48:35.106Z,97532.50
2023-04-14T19:51:02.332Z,97530.50
2023-04-14T19:53:29.188Z,97525.25
2023-04-14T19:55:58.060Z,97524.00
2023-04-14T19:58:26.738Z,97527.03
2023-04-14T20:00:57.183Z,97518.09
2023-04-14T20:03:24.552Z,97517.25
2023-04-14T20:05:55.918Z,97520.31
2023-04-14T20:08:28.985Z,97530.25
2023-04-14T20:10:55.500Z,97525.59
2023-04-14T20:13:23.249Z,97531.41
2023-04-14T20:15:50.665Z,97524.44
2023-04-14T20:18:17.860Z,97527.34
2023-04-14T20:20:48.584Z,97532.16
2023-04-14T20:23:15.787Z,97526.13
2023-04-14T20:25:43.140Z,97519.66
2023-04-14T20:28:09.860Z,97517.81
2023-04-14T20:30:36.515Z,97528.47
2023-04-14T20:33:04.411Z,97528.47
2023-04-14T20:35:32.624Z,97520.63
2023-04-14T20:37:59.503Z,97524.16
2023-04-14T20:40:26.340Z,97525.53
2023-04-14T20:42:52.860Z,97531.06
2023-04-14T20:45:19.997Z,97532.31
2023-04-14T20:47:46.819Z,97534.47
2023-04-14T20:50:13.408Z,97538.47
2023-04-14T20:52:40.379Z,97536.75
2023-04-14T20:55:07.347Z,97535.94
2023-04-14T20:57:33.963Z,97540.63
2023-04-14T21:00:00.426Z,97534.28
2023-04-14T21:02:27.498Z,97534.66
2023-04-14T21:04:54.104Z,97535.28
2023-04-14T21:07:20.588Z,97534.50
2023-04-14T21:09:47.050Z,97535.84
2023-04-14T21:12:14.813Z,97533.91
2023-04-14T21:15:29.674Z,97536.88
2023-04-14T21:17:29.959Z,97535.00
2023-04-14T21:19:56.638Z,97532.06
2023-04-14T21:22:23.230Z,97535.00
2023-04-14T21:24:49.778Z,97531.38
2023-04-14T21:27:17.331Z,97536.06
2023-04-14T21:29:44.750Z,97528.41
2023-04-14T21:32:11.612Z,97527.41
2023-04-14T21:34:38.246Z,97526.75
2023-04-14T21:37:05.064Z,97531.59
2023-04-14T21:39:33.136Z,97529.78
2023-04-14T21:42:01.377Z,97537.50
2023-04-14T21:44:28.209Z,97535.16
2023-04-14T21:46:55.505Z,97535.19
2023-04-14T21:49:22.467Z,97538.75
2023-04-14T21:51:50.918Z,97532.22
2023-04-14T21:54:17.482Z,97535.81
2023-04-14T21:56:45.002Z,97528.97
2023-04-14T21:59:11.874Z,97532.75
2023-04-14T22:01:39.058Z,97527.50
2023-04-14T22:04:06.388Z,97531.75
2023-04-14T22:06:33.916Z,97528.31
2023-04-14T22:09:00.549Z,97535.88
2023-04-14T22:11:28.690Z,97543.13
2023-04-14T22:13:55.537Z,97545.06
2023-04-14T22:16:22.176Z,97540.63
2023-04-14T22:18:49.147Z,97541.16
2023-04-14T22:21:15.730Z,97541.78
2023-04-14T22:23:46.671Z,97553.16
2023-04-14T22:26:13.503Z,97542.81
2023-04-14T22:28:40.651Z,97540.34
2023-04-14T22:31:07.766Z,97550.66
2023-04-14T22:33:35.780Z,97541.84
2023-04-14T22:36:04.393Z,97545.41
2023-04-14T22:38:31.025Z,97548.19
2023-04-14T22:40:57.539Z,97558.81
2023-04-14T22:43:24.116Z,97562.00
2023-04-14T22:45:50.956Z,97548.84
2023-04-14T22:48:17.554Z,97548.19
2023-04-14T22:50:44.084Z,97555.69
2023-04-14T22:53:10.802Z,97560.31
2023-04-14T22:55:37.269Z,97557.91
2023-04-14T22:58:04.132Z,97561.38
2023-04-14T23:00:30.608Z,97561.94
2023-04-14T23:02:59.262Z,97560.56
2023-04-14T23:05:26.051Z,97558.78
2023-04-14T23:07:52.697Z,97559.91
2023-04-14T23:10:19.221Z,97564.25
2023-04-14T23:12:45.714Z,97568.59
2023-04-14T23:15:12.298Z,97572.28
2023-04-14T23:17:38.872Z,97578.88
2023-04-14T23:20:05.939Z,97565.63
2023-04-14T23:22:32.859Z,97566.03
2023-04-14T23:24:59.822Z,97568.25
2023-04-14T23:27:26.308Z,97564.38
2023-04-14T23:29:53.534Z,97571.88
2023-04-14T23:32:20.053Z,97569.50
2023-04-14T23:34:46.656Z,97576.84
2023-04-14T23:37:13.171Z,97566.56
2023-04-14T23:39:39.626Z,97566.56
2023-04-14T23:42:06.602Z,97561.69
2023-04-14T23:44:33.071Z,97565.28
2023-04-14T23:46:59.615Z,97558.91
2023-04-14T23:49:34.764Z,97558.75
2023-04-14T23:52:02.139Z,97561.50
2023-04-14T23:54:30.750Z,97552.72
2023-04-14T23:56:58.097Z,97560.66
2023-04-14T23:59:24.538Z,97562.69
